Time;durP1;ratioP1;P1;durP2;ratioP2;P2;SDS_P1;SDS_P2;PMS_P1;PMS_P2;Temp;Humidity;BMP_temperature;BMP_pressure;BME280_temperature;BME280_humidity;BME280_pressure;Samples;Min_cycle;Max_cycle;Signal;HPM_P1;HPM_P2
2021/11/17 02:26:59;;;;;;;29.80;17.43;;;5.90;90.40;;;4.35;93.40;98264.59;4961613;28;20461;-67
2021/11/17 02:30:03;;;;;;;36.33;17.33;;;5.80;90.70;;;4.45;92.78;98265.22;4952211;28;21275;-67
2021/11/17 02:32:55;;;;;;;30.37;16.33;;;5.90;90.70;;;4.64;92.37;98276.56;4964852;28;20456;-68
2021/11/17 02:36:05;;;;;;;29.90;16.23;;;5.90;91.00;;;4.62;92.90;98295.47;4967805;28;20508;-67
2021/11/17 02:39:04;;;;;;;34.50;17.40;;;5.90;90.70;;;4.56;93.17;98285.47;4969524;28;20571;-68
2021/11/17 02:42:04;;;;;;;29.87;16.23;;;5.90;90.70;;;4.75;92.81;98284.22;4961761;28;20501;-68
2021/11/17 02:44:52;;;;;;;34.97;17.33;;;6.00;90.90;;;4.76;92.14;98279.72;4969208;28;20469;-68
2021/11/17 02:47:43;;;;;;;31.67;16.77;;;6.00;90.30;;;4.77;92.02;98287.56;4965506;28;20512;-68
2021/11/17 02:50:41;;;;;;;31.57;15.97;;;6.10;90.20;;;4.52;93.62;98273.41;4944613;28;20486;-68
2021/11/17 02:53:39;;;;;;;29.60;15.80;;;5.90;90.20;;;4.63;92.71;98281.06;4969518;28;20552;-67
2021/11/17 02:56:29;;;;;;;29.07;15.70;;;5.90;91.20;;;4.53;93.20;98270.56;4966243;28;20504;-67
2021/11/17 02:59:34;;;;;;;26.80;15.60;;;5.90;91.00;;;4.61;93.06;98271.53;4961249;28;20537;-68
2021/11/17 03:02:35;;;;;;;26.70;14.97;;;5.90;90.90;;;4.50;93.42;98273.59;4966537;28;20601;-68
2021/11/17 03:05:56;;;;;;;27.93;15.47;;;5.90;90.80;;;4.67;91.83;98273.53;4951914;28;20964;-66
2021/11/17 03:08:46;;;;;;;30.30;17.20;;;5.90;90.60;;;4.43;93.30;98275.25;4910300;28;20548;-68
2021/11/17 03:11:55;;;;;;;22.87;14.77;;;5.90;90.30;;;4.60;92.23;98281.44;4968863;28;20553;-67
2021/11/17 03:14:46;;;;;;;26.17;15.40;;;5.90;90.30;;;4.69;92.25;98279.56;4945471;28;20895;-67
2021/11/17 03:17:40;;;;;;;28.33;15.70;;;5.90;90.60;;;4.65;92.02;98283.59;4966178;28;20548;-67
2021/11/17 03:20:35;;;;;;;25.37;14.73;;;5.90;90.40;;;4.66;92.24;98290.63;4961658;28;20960;-67
2021/11/17 03:23:21;;;;;;;22.50;15.47;;;5.90;90.70;;;4.65;92.53;98295.13;4970086;28;20489;-66
2021/11/17 03:26:08;;;;;;;24.90;15.53;;;5.90;90.80;;;4.67;91.64;98282.41;4968876;28;20466;-68
2021/11/17 03:29:07;;;;;;;25.60;15.20;;;6.00;90.30;;;4.62;91.99;98292.78;4952266;28;20843;-67
2021/11/17 03:32:02;;;;;;;23.90;14.10;;;6.00;90.20;;;4.65;92.03;98296.97;4965979;28;20568;-67
2021/11/17 03:35:08;;;;;;;23.53;14.13;;;6.00;90.40;;;4.63;91.40;98285.59;4970136;28;20989;-69
2021/11/17 03:38:14;;;;;;;23.10;14.77;;;6.00;89.50;;;4.54;92.01;98287.44;4970004;28;20504;-67
2021/11/17 03:41:23;;;;;;;21.50;14.13;;;5.90;90.30;;;4.66;93.07;98282.59;4969521;28;20462;-67
2021/11/17 03:44:42;;;;;;;24.97;15.73;;;5.90;90.80;;;4.65;92.59;98283.59;4971968;28;20460;-67
2021/11/17 03:47:44;;;;;;;27.90;15.90;;;5.90;90.60;;;4.56;93.01;98276.56;4960158;28;20460;-67
2021/11/17 03:50:50;;;;;;;22.70;14.10;;;5.90;90.80;;;4.52;92.60;98290.31;4951604;28;20454;-68
2021/11/17 03:53:42;;;;;;;24.93;15.67;;;5.90;90.80;;;4.51;93.28;98290.47;4949112;28;20561;-67
2021/11/17 03:56:37;;;;;;;21.40;14.60;;;5.90;91.10;;;4.43;94.39;98280.59;4961712;28;20576;-67
2021/11/17 03:59:27;;;;;;;24.33;15.90;;;5.80;91.40;;;4.38;93.08;98280.28;4970292;28;20947;-67
2021/11/17 04:02:22;;;;;;;25.03;14.77;;;5.80;91.10;;;4.39;93.61;98284.63;4963206;28;20913;-68
2021/11/17 04:05:24;;;;;;;26.10;16.97;;;5.80;91.30;;;4.52;93.92;98279.59;4967103;28;20488;-68
2021/11/17 04:08:25;;;;;;;23.00;14.40;;;5.80;91.20;;;4.49;93.03;98276.41;4965647;28;20555;-67
2021/11/17 04:11:15;;;;;;;21.10;14.97;;;5.90;91.20;;;4.43;93.80;98285.97;4956165;28;20555;-67
2021/11/17 04:13:55;;;;;;;23.60;15.60;;;5.80;91.20;;;4.53;93.33;98280.41;4970380;28;20549;-68
2021/11/17 04:16:42;;;;;;;25.67;15.77;;;5.90;91.60;;;4.43;94.50;98280.59;4969309;28;20509;-68
2021/11/17 04:19:29;;;;;;;22.20;15.37;;;5.80;91.70;;;4.50;93.38;98286.97;4967585;28;20493;-68
2021/11/17 04:22:30;;;;;;;24.67;15.90;;;5.80;91.70;;;4.52;93.38;98292.13;4970200;28;20468;-68
2021/11/17 04:25:25;;;;;;;26.10;15.90;;;5.90;91.30;;;4.37;94.14;98281.28;4949598;28;20601;-68
2021/11/17 04:28:15;;;;;;;24.00;16.30;;;5.80;91.40;;;4.52;93.53;98290.31;4959138;28;20493;-68
2021/11/17 04:31:18;;;;;;;24.27;16.53;;;5.80;91.70;;;4.48;94.04;98294.34;4967730;28;20486;-69
2021/11/17 04:34:47;;;;;;;24.97;16.40;;;5.80;91.40;;;4.42;93.42;98284.28;4960508;28;20458;-67
2021/11/17 04:37:47;;;;;;;24.17;16.20;;;5.80;91.10;;;4.47;93.50;98292.63;4963108;28;20467;-68
2021/11/17 04:40:46;;;;;;;21.27;15.27;;;5.80;91.50;;;4.38;93.83;98294.47;4966685;28;20560;-67
2021/11/17 04:43:46;;;;;;;21.47;15.33;;;5.70;91.30;;;4.37;93.92;98292.00;4966319;28;20540;-68
2021/11/17 04:46:32;;;;;;;23.87;15.67;;;5.70;91.70;;;4.52;92.00;98287.63;4966304;28;21027;-68
2021/11/17 04:49:34;;;;;;;26.60;17.20;;;5.80;90.70;;;4.51;93.63;98296.66;4964413;28;20493;-68
2021/11/17 04:52:28;;;;;;;25.27;15.20;;;5.80;91.10;;;4.49;92.39;98296.00;4967840;28;20459;-68
2021/11/17 04:55:18;;;;;;;21.40;14.80;;;5.90;90.00;;;4.47;92.56;98300.66;4968926;28;20497;-68
2021/11/17 04:58:11;;;;;;;25.30;16.07;;;5.80;90.00;;;4.52;92.80;98303.69;4971924;28;20497;-68
2021/11/17 05:01:10;;;;;;;22.87;14.33;;;5.80;90.60;;;4.56;91.83;98304.19;4967775;28;20484;-68
2021/11/17 05:03:56;;;;;;;24.00;15.17;;;5.90;89.90;;;4.43;92.28;98302.00;4958984;28;20468;-68
2021/11/17 05:06:47;;;;;;;22.23;15.90;;;5.80;89.40;;;4.39;92.04;98303.38;4945414;28;20457;-67
2021/11/17 05:09:30;;;;;;;20.30;13.20;;;5.80;89.50;;;4.35;92.03;98302.84;4949398;28;20492;-68
2021/11/17 05:12:16;;;;;;;23.43;15.77;;;5.70;89.40;;;4.52;91.89;98310.84;4965303;28;20471;-68
2021/11/17 05:14:57;;;;;;;21.37;14.47;;;5.80;90.00;;;4.35;92.07;98305.53;4959498;28;20466;-68
2021/11/17 05:17:39;;;;;;;22.70;15.10;;;5.70;89.80;;;4.45;92.83;98308.03;4966464;28;21056;-68
2021/11/17 05:20:30;;;;;;;22.20;15.10;;;5.80;90.60;;;4.52;92.87;98300.16;4952610;28;20568;-68
2021/11/17 05:23:21;;;;;;;23.00;15.73;;;5.80;90.60;;;4.45;91.70;98302.66;4971128;28;20879;-69
2021/11/17 05:26:07;;;;;;;22.30;15.20;;;5.80;89.70;;;4.44;92.41;98303.69;4961101;28;20520;-69
2021/11/17 05:29:21;;;;;;;18.97;13.80;;;5.80;90.30;;;4.44;92.14;98298.31;4966141;28;20523;-69
2021/11/17 05:32:13;;;;;;;19.93;14.70;;;5.80;90.00;;;4.65;90.38;98303.16;4945393;28;20464;-69
2021/11/17 05:35:02;;;;;;;20.40;13.30;;;5.90;89.10;;;4.66;91.44;98302.13;4950962;28;20504;-68
2021/11/17 05:37:47;;;;;;;20.13;14.47;;;5.90;88.90;;;4.43;92.33;98293.16;4951791;28;20556;-67
2021/11/17 05:40:44;;;;;;;19.90;13.63;;;5.80;88.80;;;4.65;90.78;98296.97;4968384;28;20493;-67
2021/11/17 05:43:28;;;;;;;21.17;13.90;;;5.90;89.50;;;4.62;90.67;98294.63;4970761;28;20995;-67
2021/11/17 05:46:18;;;;;;;20.30;14.33;;;5.90;88.10;;;4.53;91.74;98302.69;4970326;28;20469;-68
2021/11/17 05:49:00;;;;;;;22.73;14.50;;;5.90;89.00;;;4.53;90.64;98291.97;4973139;28;20461;-68
2021/11/17 05:51:47;;;;;;;22.87;14.33;;;5.90;88.80;;;4.46;91.49;98296.31;4969354;28;20461;-68
2021/11/17 05:54:36;;;;;;;21.60;14.77;;;5.90;89.50;;;4.36;92.61;98304.53;4970962;28;20469;-68
2021/11/17 05:57:39;;;;;;;22.70;15.23;;;5.80;90.00;;;4.55;91.59;98299.84;4971476;28;21159;-69
2021/11/17 06:00:44;;;;;;;19.67;14.00;;;5.80;90.20;;;4.57;91.08;98302.31;4971497;28;20579;-68
2021/11/17 06:03:30;;;;;;;20.03;14.20;;;5.90;88.60;;;4.63;90.88;98315.06;4964697;28;20941;-68
2021/11/17 06:05:56;;;;;;;21.50;14.90;;;5.90;88.60;;;4.51;90.55;98304.69;4976887;28;20457;-68
2021/11/17 06:08:23;;;;;;;26.57;14.37;;;5.90;88.40;;;4.69;90.22;98330.41;4970609;28;20461;-67
2021/11/17 06:10:54;;;;;;;23.13;15.57;;;5.90;87.60;;;4.50;91.34;98328.94;4969476;28;21008;-69
2021/11/17 06:13:22;;;;;;;20.50;14.30;;;5.90;87.60;;;4.60;91.41;98336.78;4967872;28;20948;-69
2021/11/17 06:15:49;;;;;;;22.73;14.07;;;5.90;88.40;;;4.64;91.41;98340.81;4967933;28;21023;-68
2021/11/17 06:18:20;;;;;;;28.90;18.40;;;5.90;89.10;;;4.61;91.88;98344.66;4971083;28;20466;-67
2021/11/17 06:20:49;;;;;;;22.50;14.77;;;6.00;89.30;;;4.52;90.72;98338.47;4967882;28;20461;-68
2021/11/17 06:23:22;;;;;;;26.97;17.57;;;5.90;88.30;;;4.56;91.56;98340.81;4969411;28;20481;-68
2021/11/17 06:25:51;;;;;;;20.40;14.33;;;5.90;89.60;;;4.65;91.23;98348.66;4970221;28;20456;-69
2021/11/17 06:28:23;;;;;;;21.27;14.33;;;5.90;89.30;;;4.73;91.83;98353.16;4964712;28;20575;-68
2021/11/17 06:30:52;;;;;;;23.57;15.23;;;6.00;90.10;;;4.80;93.63;98356.84;4962152;28;20882;-68
2021/11/17 06:33:20;;;;;;;24.93;16.43;;;6.10;91.90;;;4.93;92.95;98363.53;4948980;28;20491;-67
2021/11/17 06:35:48;;;;;;;22.50;16.20;;;6.20;91.50;;;4.89;91.83;98354.13;4968960;28;20466;-67
2021/11/17 06:38:17;;;;;;;22.73;15.37;;;6.20;89.40;;;4.73;91.66;98349.66;4956606;28;20468;-68
2021/11/17 06:40:47;;;;;;;22.23;15.87;;;6.20;88.20;;;4.69;91.73;98349.16;4973616;28;21281;-69
2021/11/17 06:43:17;;;;;;;24.53;16.27;;;6.10;90.20;;;4.59;93.10;98348.50;4965147;28;20493;-70
2021/11/17 06:45:46;;;;;;;23.20;16.80;;;6.00;90.90;;;4.37;92.91;98338.28;4970501;28;20545;-68
2021/11/17 06:48:14;;;;;;;22.27;16.83;;;5.90;90.60;;;4.63;92.46;98353.34;4976548;28;20855;-68
2021/11/17 06:50:46;;;;;;;23.33;16.70;;;5.90;90.80;;;4.73;92.41;98353.16;4951888;28;20761;-68
2021/11/17 06:53:13;;;;;;;22.20;16.37;;;6.00;90.50;;;4.66;91.82;98365.56;4966672;28;20493;-69
2021/11/17 06:55:41;;;;;;;24.00;15.13;;;6.00;89.60;;;4.54;92.27;98360.53;4966051;28;21099;-69
2021/11/17 06:58:08;;;;;;;25.70;16.50;;;5.90;89.70;;;4.60;91.79;98371.56;4972811;28;20473;-68
2021/11/17 07:00:41;;;;;;;22.20;15.17;;;5.90;89.60;;;4.56;91.51;98367.56;4951993;28;20481;-69
2021/11/17 07:03:10;;;;;;;22.90;15.33;;;5.90;89.80;;;4.67;92.44;98367.22;4942358;28;20467;-68
2021/11/17 07:05:37;;;;;;;23.60;15.00;;;6.00;90.80;;;4.68;92.06;98368.91;4969981;28;20866;-68
2021/11/17 07:08:05;;;;;;;20.53;14.03;;;6.00;90.50;;;4.82;92.23;98370.03;4969467;28;20500;-72
2021/11/17 07:10:35;;;;;;;20.80;14.97;;;6.10;90.00;;;4.64;91.06;98368.41;4966971;28;20462;-70
2021/11/17 07:13:04;;;;;;;25.03;16.67;;;6.10;88.60;;;4.63;91.57;98366.72;4956297;28;20513;-71
2021/11/17 07:15:32;;;;;;;25.40;16.03;;;6.00;89.10;;;5.02;89.83;98370.50;4952210;28;20454;-71
2021/11/17 07:18:01;;;;;;;22.27;15.40;;;6.30;88.20;;;4.77;90.06;98361.69;4970349;28;20465;-73
2021/11/17 07:20:29;;;;;;;20.70;15.33;;;6.20;86.30;;;4.85;90.54;98384.94;4973008;28;20580;-73
2021/11/17 07:22:56;;;;;;;23.60;15.13;;;6.20;86.40;;;4.81;89.70;98382.59;4955301;28;20478;-73
2021/11/17 07:25:25;;;;;;;24.40;15.67;;;6.10;86.80;;;5.06;89.07;98377.19;4969290;28;20450;-72
2021/11/17 07:27:55;;;;;;;21.73;14.47;;;6.30;86.30;;;4.99;89.58;98384.25;4951375;28;20561;-71
2021/11/17 07:30:27;;;;;;;23.80;15.93;;;6.30;85.80;;;4.95;89.19;98373.03;4980540;28;20564;-70
2021/11/17 07:32:54;;;;;;;22.15;16.35;;;6.30;85.00;;;4.97;88.90;98378.22;4955682;28;20466;-73
2021/11/17 07:35:25;;;;;;;21.43;14.40;;;6.30;85.40;;;5.24;88.53;98393.06;4965314;28;20231;-72
2021/11/17 07:38:00;;;;;;;18.70;14.00;;;6.40;85.90;;;5.10;87.93;98399.13;4956341;28;20466;-71
2021/11/17 07:40:28;;;;;;;24.00;15.60;;;6.50;84.10;;;5.13;88.33;98392.59;4968840;28;20507;-71
2021/11/17 07:42:55;;;;;;;24.20;15.20;;;6.50;84.70;;;5.10;89.25;98409.84;4956966;28;20470;-71
2021/11/17 07:45:24;;;;;;;21.50;15.13;;;6.40;85.10;;;4.98;88.94;98409.34;4964748;28;20453;-71
2021/11/17 07:47:51;;;;;;;23.57;15.30;;;6.40;84.30;;;4.79;90.07;98400.69;4967746;28;20466;-71
2021/11/17 07:50:19;;;;;;;19.47;14.53;;;6.20;86.00;;;4.72;89.77;98407.69;4968867;28;20493;-70
2021/11/17 07:52:47;;;;;;;22.57;15.60;;;6.10;85.90;;;4.77;89.62;98399.16;4968111;28;20508;-71
2021/11/17 07:55:18;;;;;;;23.57;15.53;;;6.20;86.20;;;4.79;90.15;98406.03;4967965;28;20475;-71
2021/11/17 07:57:49;;;;;;;22.83;15.47;;;6.20;86.20;;;4.81;90.03;98416.56;4966348;28;20497;-71
2021/11/17 08:00:22;;;;;;;29.33;16.63;;;6.10;86.50;;;4.92;90.35;98420.72;4966266;28;20607;-71
2021/11/17 08:02:50;;;;;;;21.67;15.40;;;6.20;86.70;;;4.68;90.02;98423.25;4949885;28;20497;-71
2021/11/17 08:05:18;;;;;;;23.20;14.70;;;6.10;86.30;;;4.66;90.58;98429.81;4954624;28;20553;-71
2021/11/17 08:07:47;;;;;;;21.87;15.20;;;6.10;86.20;;;4.81;89.64;98433.47;4961570;28;20468;-71
2021/11/17 08:10:19;;;;;;;22.53;15.43;;;6.10;86.70;;;5.00;89.14;98434.13;4966432;28;20501;-72
2021/11/17 08:12:48;;;;;;;23.83;16.43;;;6.30;86.20;;;5.04;89.28;98440.00;4947255;28;20985;-72
2021/11/17 08:15:18;;;;;;;22.27;14.70;;;6.30;85.60;;;5.04;89.44;98443.47;4963021;28;20556;-70
2021/11/17 08:17:45;;;;;;;25.00;15.80;;;6.40;85.30;;;5.06;88.95;98443.31;4966957;28;20468;-71
2021/11/17 08:20:16;;;;;;;22.90;15.43;;;6.40;85.70;;;5.16;89.27;98446.66;4964181;28;20539;-71
2021/11/17 08:22:47;;;;;;;20.90;15.00;;;6.50;85.50;;;5.22;88.94;98445.13;4969998;28;20453;-71
2021/11/17 08:25:17;;;;;;;21.93;14.97;;;6.50;86.00;;;4.16;88.54;98279.94;4968285;28;20998;-70
2021/11/17 08:27:45;;;;;;;20.73;15.00;;;6.50;85.20;;;5.27;88.17;98450.81;4968380;28;20564;-72
2021/11/17 08:30:14;;;;;;;22.40;15.17;;;6.60;84.40;;;5.24;86.98;98452.00;4964933;28;20907;-70
2021/11/17 08:32:43;;;;;;;20.58;14.43;;;6.60;83.20;;;5.07;87.14;98437.78;4966287;28;20462;-70
2021/11/17 08:35:13;;;;;;;21.33;14.00;;;6.50;82.70;;;5.07;89.14;98445.81;4950079;28;20241;-70
2021/11/17 08:37:40;;;;;;;19.50;14.03;;;6.40;84.60;;;5.18;86.82;98446.47;4964804;28;20517;-72
2021/11/17 08:40:12;;;;;;;17.53;13.77;;;6.50;82.80;;;5.20;86.36;98436.44;4966464;28;20543;-70
2021/11/17 08:42:42;;;;;;;20.70;13.73;;;6.60;82.30;;;5.35;86.33;98456.16;4965392;28;20458;-71
2021/11/17 08:45:11;;;;;;;16.37;13.57;;;6.60;82.00;;;5.29;84.64;98446.13;4965152;28;20564;-70
2021/11/17 08:47:39;;;;;;;20.80;13.93;;;6.60;80.80;;;5.02;85.66;98408.00;4965490;28;21031;-82
2021/11/17 08:50:10;;;;;;;21.97;14.20;;;6.60;81.50;;;5.33;84.98;98447.44;4974779;28;20473;-72
2021/11/17 08:52:37;;;;;;;18.13;13.30;;;6.60;81.00;;;5.33;85.26;98447.44;4961279;28;20457;-70
2021/11/17 08:55:06;;;;;;;20.37;14.70;;;6.70;81.20;;;5.39;86.36;98441.44;4967454;28;20563;-70
2021/11/17 08:57:35;;;;;;;22.67;16.23;;;6.70;81.80;;;5.45;86.17;98447.09;4964382;28;20915;-68
2021/11/17 09:00:03;;;;;;;21.63;13.60;;;6.70;81.50;;;5.26;85.30;98451.84;4967692;28;20519;-69
2021/11/17 09:02:30;;;;;;;21.67;15.07;;;6.70;80.70;;;5.10;87.45;98442.81;4943983;28;20540;-69
2021/11/17 09:04:57;;;;;;;25.30;14.97;;;6.60;81.80;;;5.21;86.35;98432.75;4960838;28;20968;-69
2021/11/17 09:07:24;;;;;;;23.73;16.13;;;6.60;81.60;;;5.37;85.65;98451.47;4955076;28;20513;-68
2021/11/17 09:09:51;;;;;;;20.97;14.40;;;6.60;81.60;;;5.42;85.66;98450.94;4964918;28;20525;-69
2021/11/17 09:12:18;;;;;;;19.83;14.37;;;6.70;81.70;;;5.37;85.76;98453.31;4949023;28;20494;-69
2021/11/17 09:14:47;;;;;;;18.80;13.47;;;6.60;81.40;;;5.21;85.85;98460.38;4959577;28;20473;-69
2021/11/17 09:17:14;;;;;;;23.60;13.70;;;6.60;81.20;;;5.25;85.82;98455.53;4964646;28;20461;-69
2021/11/17 09:19:41;;;;;;;20.87;14.30;;;6.50;81.10;;;5.27;85.51;98461.56;4962252;28;20509;-70
2021/11/17 09:22:08;;;;;;;17.73;14.07;;;6.60;81.40;;;5.33;85.71;98463.53;4965109;28;20542;-69
2021/11/17 09:24:35;;;;;;;19.20;13.13;;;6.60;81.40;;;5.17;85.53;98450.16;4971678;28;20592;-69
2021/11/17 09:27:04;;;;;;;21.30;13.90;;;6.60;81.20;;;5.18;85.48;98458.06;4941616;28;20870;-69
2021/11/17 09:29:33;;;;;;;19.80;13.80;;;6.60;80.80;;;5.23;85.85;98462.88;4962620;28;20460;-69
2021/11/17 09:32:02;;;;;;;22.27;15.10;;;6.60;81.50;;;5.32;86.57;98461.03;4966625;28;20529;-69
2021/11/17 09:34:29;;;;;;;21.70;15.33;;;6.70;82.40;;;4.97;87.81;98458.56;4959610;28;21143;-70
2021/11/17 09:36:56;;;;;;;19.57;14.23;;;6.50;82.50;;;5.09;87.56;98461.72;4942888;28;21591;-69
2021/11/17 09:39:23;;;;;;;19.17;14.40;;;6.40;82.40;;;5.05;88.05;98477.28;4968094;28;20593;-69
2021/11/17 09:41:54;;;;;;;21.60;15.23;;;6.40;82.90;;;5.04;87.59;98470.28;4963029;28;20496;-69
2021/11/17 09:44:28;;;;;;;18.50;12.90;;;6.40;83.10;;;4.97;88.05;98466.59;4963851;28;20461;-68
2021/11/17 09:46:58;;;;;;;20.40;13.60;;;6.40;83.10;;;5.05;88.09;98466.59;4959633;28;20487;-67
2021/11/17 09:49:30;;;;;;;18.23;14.50;;;6.40;83.80;;;5.16;87.55;98472.59;4965848;28;20520;-69
2021/11/17 09:52:01;;;;;;;18.90;13.83;;;6.40;83.60;;;5.13;88.21;98473.78;4948132;28;20469;-69
2021/11/17 09:54:39;;;;;;;20.80;13.07;;;6.40;83.90;;;4.99;87.93;98466.41;4954547;28;20505;-69
2021/11/17 09:57:11;;;;;;;16.97;12.57;;;6.40;83.70;;;5.07;87.56;98463.75;4953365;28;20493;-69
2021/11/17 09:59:43;;;;;;;17.97;12.80;;;6.40;83.80;;;5.11;88.64;98470.44;4948858;28;20493;-69
2021/11/17 10:02:15;;;;;;;16.13;11.90;;;6.40;84.30;;;5.15;87.40;98470.94;4944343;28;20477;-70
2021/11/17 10:04:50;;;;;;;18.00;12.27;;;6.50;83.50;;;5.22;87.40;98469.25;4949445;28;20821;-69
2021/11/17 10:13:07;;;;;;;16.80;12.97;;;6.40;84.10;;;5.20;88.75;98473.94;4954378;28;20461;-68
2021/11/17 10:15:38;;;;;;;15.23;11.00;;;6.50;85.30;;;5.24;88.40;98491.38;4966101;28;20469;-69
2021/11/17 10:18:38;;;;;;;14.40;10.50;;;6.50;84.20;;;5.19;89.24;98472.25;4964115;28;20492;-68
2021/11/17 10:21:16;;;;;;;16.97;13.03;;;6.50;85.20;;;4.89;89.74;98434.47;4948496;28;21087;-70
2021/11/17 10:24:05;;;;;;;14.30;10.27;;;6.50;84.90;;;5.12;89.33;98471.28;4962097;28;20561;-69
2021/11/17 10:26:38;;;;;;;14.73;11.40;;;6.50;85.80;;;5.18;88.58;98465.22;4955526;28;20485;-69
2021/11/17 10:29:08;;;;;;;16.50;11.17;;;6.50;84.70;;;5.26;88.61;98467.91;4972276;28;20523;-69
2021/11/17 10:31:50;;;;;;;18.03;12.50;;;6.50;85.20;;;5.06;89.84;98470.94;4958124;28;20523;-69
2021/11/17 10:34:20;;;;;;;15.43;11.03;;;6.50;85.40;;;5.42;89.63;98471.56;4965920;28;20952;-70
2021/11/17 10:37:00;;;;;;;16.40;12.93;;;6.70;86.30;;;5.44;88.82;98469.53;4950572;28;20482;-69
2021/11/17 10:39:31;;;;;;;17.70;12.53;;;6.70;85.20;;;5.59;88.15;98467.84;4967727;28;20590;-69
2021/11/17 10:42:05;;;;;;;15.33;11.20;;;6.90;84.40;;;5.55;87.59;98466.50;4970988;28;20536;-68
2021/11/17 10:44:49;;;;;;;15.97;11.73;;;6.90;83.90;;;5.46;87.95;98468.38;4952229;28;20550;-69
2021/11/17 10:47:27;;;;;;;17.77;11.70;;;6.90;83.40;;;5.25;89.23;98474.28;4965232;28;20560;-69
2021/11/17 10:49:59;;;;;;;14.33;11.40;;;6.60;84.20;;;5.43;89.07;98474.06;4968566;28;20464;-67
2021/11/17 10:52:33;;;;;;;15.13;11.73;;;6.70;85.40;;;5.54;88.19;98470.19;4967462;28;20469;-69
2021/11/17 10:55:05;;;;;;;17.37;11.87;;;6.80;84.80;;;5.50;88.13;98479.56;4968908;28;20466;-69
2021/11/17 10:57:38;;;;;;;12.80;10.40;;;6.80;84.20;;;5.39;87.75;98473.59;4969938;28;20472;-69
2021/11/17 11:00:11;;;;;;;13.97;10.33;;;6.80;83.80;;;5.32;87.04;98461.03;4960731;28;20485;-71
2021/11/17 11:02:41;;;;;;;15.53;10.83;;;6.70;82.90;;;5.42;87.79;98476.94;4966557;28;20457;-68
2021/11/17 11:05:14;;;;;;;14.52;11.82;;;6.70;83.30;;;5.25;87.80;98482.31;4967589;28;20529;-69
2021/11/17 11:07:50;;;;;;;16.47;12.00;;;6.60;83.00;;;5.00;88.97;98479.66;4970779;28;20227;-70
2021/11/17 11:10:22;;;;;;;14.27;11.30;;;6.50;84.40;;;5.01;89.48;98486.69;4950519;28;20465;-69
2021/11/17 11:12:51;;;;;;;14.10;12.60;;;6.40;85.10;;;4.94;90.26;98474.97;4968276;28;20454;-70
2021/11/17 11:15:23;;;;;;;15.00;11.30;;;6.40;87.30;;;4.96;91.40;98489.84;4967091;28;20205;-71
2021/11/17 11:18:44;;;;;;;12.03;9.60;;;6.30;88.00;;;4.90;88.34;98484.34;4967880;28;20458;-69
2021/11/17 11:21:15;;;;;;;11.67;8.30;;;6.40;84.50;;;4.88;89.53;98484.53;4953985;28;20473;-68
2021/11/17 11:24:27;;;;;;;10.53;8.57;;;6.30;84.60;;;4.88;89.10;98489.03;4949386;28;20541;-68
2021/11/17 11:27:31;;;;;;;10.17;8.30;;;6.20;84.30;;;4.79;88.03;98499.75;4950878;28;20471;-69
2021/11/17 11:30:38;;;;;;;12.00;9.03;;;6.20;83.20;;;4.72;88.44;98488.00;4969830;28;20524;-70
2021/11/17 11:33:22;;;;;;;11.73;9.03;;;6.20;84.20;;;4.71;88.74;98486.34;4972017;28;20449;-69
2021/11/17 11:36:38;;;;;;;14.40;11.00;;;6.10;83.90;;;4.87;88.13;98469.47;4968119;28;20489;-70
2021/11/17 11:39:34;;;;;;;14.47;10.80;;;6.20;83.10;;;4.94;87.68;98459.72;4954490;28;20561;-70
2021/11/17 11:42:24;;;;;;;11.10;9.70;;;6.40;83.50;;;5.28;86.30;98473.94;4965023;28;21056;-73
2021/11/17 11:44:57;;;;;;;15.60;10.87;;;6.60;82.50;;;5.28;86.08;98471.25;4946785;28;20460;-69
2021/11/17 11:47:42;;;;;;;13.60;10.43;;;6.60;81.40;;;5.24;86.47;98473.44;4966651;28;20508;-69
2021/11/17 11:51:02;;;;;;;13.60;10.13;;;6.60;82.00;;;5.27;86.33;98485.66;4962451;28;20461;-68
2021/11/17 11:54:14;;;;;;;14.40;11.37;;;6.60;81.70;;;5.02;87.33;98487.53;4951006;28;21316;-69
2021/11/17 11:56:51;;;;;;;14.23;10.43;;;6.40;81.80;;;4.98;87.64;98495.06;4945062;28;20477;-69
2021/11/17 11:59:25;;;;;;;13.87;10.73;;;6.40;82.30;;;5.06;88.00;98486.19;4963277;28;20462;-69
2021/11/17 12:02:08;;;;;;;15.90;12.33;;;6.40;83.10;;;5.16;87.33;98494.03;4948984;28;20480;-69
2021/11/17 12:04:43;;;;;;;12.33;10.37;;;6.50;83.20;;;5.05;86.12;98488.00;4950522;28;20469;-70
2021/11/17 12:07:14;;;;;;;13.93;10.10;;;6.50;82.30;;;5.14;86.04;98491.50;4962737;28;20584;-69
2021/11/17 12:10:00;;;;;;;12.33;9.50;;;6.40;81.90;;;4.85;85.37;98494.72;4957581;28;21104;-70
2021/11/17 12:12:32;;;;;;;12.47;10.33;;;6.30;80.80;;;4.73;86.31;98497.72;4945302;28;20842;-69
2021/11/17 12:15:25;;;;;;;11.80;9.80;;;6.20;81.40;;;4.72;87.11;98498.72;4965399;28;20494;-70
2021/11/17 12:18:13;;;;;;;12.60;8.80;;;6.10;81.80;;;4.50;85.24;98487.66;4948251;28;20763;-70
2021/11/17 12:20:46;;;;;;;13.20;9.40;;;6.00;80.40;;;4.53;86.34;98508.75;4960718;28;20881;-71
2021/11/17 12:23:24;;;;;;;13.57;9.93;;;5.90;80.30;;;4.51;86.00;98510.75;4964138;28;21044;-70
2021/11/17 12:26:08;;;;;;;12.80;10.17;;;5.90;80.50;;;4.63;86.26;98508.59;4948415;28;20515;-70
2021/11/17 12:28:46;;;;;;;12.73;10.23;;;6.00;81.20;;;4.87;86.05;98506.09;4966289;28;20800;-72
2021/11/17 12:31:21;;;;;;;14.00;10.17;;;6.10;81.50;;;4.86;85.17;98501.75;4965180;28;20528;-67
2021/11/17 12:33:52;;;;;;;13.60;9.60;;;6.20;80.90;;;4.79;85.65;98494.38;4965847;28;20556;-67
2021/11/17 12:36:25;;;;;;;14.00;11.40;;;6.20;80.70;;;4.76;86.48;98497.38;4959166;28;20969;-67
2021/11/17 12:38:53;;;;;;;16.53;11.53;;;6.20;81.50;;;4.71;86.10;98497.03;4963366;28;20477;-67
2021/11/17 12:41:26;;;;;;;12.23;10.90;;;6.10;81.20;;;4.72;85.86;98501.41;4963922;28;20501;-69
2021/11/17 12:44:05;;;;;;;11.50;9.57;;;6.10;81.00;;;4.67;85.06;98501.06;4947744;28;20485;-67
2021/11/17 12:46:37;;;;;;;11.73;9.63;;;6.10;80.30;;;4.59;85.51;98499.22;4961002;28;20489;-67
2021/11/17 12:49:15;;;;;;;13.73;10.57;;;6.00;80.10;;;4.61;86.18;98502.56;4963629;28;20559;-67
2021/11/17 12:51:51;;;;;;;12.57;10.00;;;6.00;80.90;;;4.49;86.44;98503.88;4948142;28;20560;-68
2021/11/17 12:54:24;;;;;;;11.90;10.60;;;5.90;81.30;;;4.46;86.72;98515.72;4960917;28;20469;-67
2021/11/17 12:56:57;;;;;;;11.60;8.60;;;5.90;81.80;;;4.25;86.45;98511.69;4959385;28;20548;-67
2021/11/17 12:59:29;;;;;;;12.70;10.07;;;5.70;80.90;;;4.27;87.58;98511.53;4958804;28;21656;-69
2021/11/17 13:02:09;;;;;;;12.10;9.30;;;5.70;81.70;;;4.24;87.50;98512.69;4964845;28;20521;-67
2021/11/17 13:04:43;;;;;;;11.13;9.13;;;5.70;81.50;;;4.30;85.92;98515.69;4962260;28;20469;-68
2021/11/17 13:07:13;;;;;;;10.57;8.30;;;5.70;80.70;;;4.32;85.99;98519.03;4962469;28;21206;-68
2021/11/17 13:09:59;;;;;;;11.23;8.47;;;5.70;80.50;;;4.33;85.72;98513.53;4965429;28;21485;-68
2021/11/17 13:12:29;;;;;;;10.57;9.17;;;5.70;80.80;;;4.33;85.29;98523.41;4959856;28;20560;-69
2021/11/17 13:15:12;;;;;;;15.63;8.90;;;5.70;80.30;;;4.41;85.22;98526.09;4965323;28;20615;-70
2021/11/17 13:17:44;;;;;;;8.70;7.63;;;5.80;80.00;;;4.48;84.86;98528.97;4964660;28;20490;-70
2021/11/17 13:20:41;;;;;;;10.60;8.90;;;5.80;79.60;;;4.49;84.92;98518.09;4967519;28;20476;-70
2021/11/17 13:23:33;;;;;;;9.57;8.47;;;5.80;79.60;;;4.60;83.62;98524.97;4960949;28;21310;-70
2021/11/17 13:26:16;;;;;;;10.37;7.43;;;6.00;79.10;;;4.48;84.30;98516.44;4964226;28;20592;-69
2021/11/17 13:28:45;;;;;;;11.47;8.33;;;5.90;78.50;;;4.51;84.19;98505.41;4963523;28;20996;-70
2021/11/17 13:31:42;;;;;;;10.10;7.90;;;5.90;78.90;;;4.59;84.08;98511.75;4962712;28;20524;-70
2021/11/17 13:34:12;;;;;;;11.20;8.40;;;6.00;78.90;;;4.64;83.58;98517.47;4914618;28;20532;-70
2021/11/17 13:36:48;;;;;;;8.80;7.90;;;6.00;78.60;;;4.59;84.99;98514.44;4963068;28;20461;-70
2021/11/17 13:39:17;;;;;;;8.27;7.40;;;6.00;79.10;;;4.66;83.74;98526.16;4929937;28;20488;-69
2021/11/17 13:41:48;;;;;;;9.03;7.13;;;6.00;78.50;;;4.72;84.44;98520.13;4965531;28;21090;-70
2021/11/17 13:44:18;;;;;;;8.87;6.93;;;6.10;79.10;;;4.66;84.22;98526.16;4945600;28;20809;-71
2021/11/17 13:47:00;;;;;;;9.60;7.67;;;6.10;78.60;;;4.61;84.25;98523.13;4964939;28;20536;-69